createdAt,value
2023-03-20T00:02:32.079Z,25.60
2023-03-20T00:07:57.570Z,24.30
2023-03-20T00:13:28.648Z,23.50
2023-03-20T00:18:53.283Z,18.80
2023-03-20T00:24:20.604Z,18.30
2023-03-20T00:29:46.205Z,12.60
2023-03-20T00:35:19.610Z,12.50
2023-03-20T00:40:45.028Z,12.70
2023-03-20T00:46:13.837Z,13.00
2023-03-20T00:51:38.611Z,12.50
2023-03-20T00:57:07.153Z,11.70
2023-03-20T01:02:32.082Z,13.50
2023-03-20T01:07:57.171Z,11.80
2023-03-20T01:13:24.813Z,11.90
2023-03-20T01:18:49.133Z,16.90
2023-03-20T01:24:13.727Z,25.50
2023-03-20T01:29:39.285Z,19.70
2023-03-20T01:35:04.442Z,19.30
2023-03-20T01:40:37.998Z,18.10
2023-03-20T01:46:18.592Z,26.20
2023-03-20T01:51:43.057Z,29.90
2023-03-20T01:57:17.589Z,28.70
2023-03-20T02:02:47.617Z,24.90
2023-03-20T02:08:37.335Z,25.00
2023-03-20T02:14:02.119Z,20.30
2023-03-20T02:19:52.600Z,18.40
2023-03-20T02:25:51.655Z,21.40
2023-03-20T02:31:56.951Z,25.70
2023-03-20T02:37:47.414Z,26.40
2023-03-20T02:43:25.732Z,26.60
2023-03-20T02:49:08.987Z,25.70
2023-03-20T02:54:44.354Z,25.30
2023-03-20T03:00:23.964Z,23.70
2023-03-20T03:05:55.024Z,18.00
2023-03-20T03:11:19.484Z,17.50
2023-03-20T03:16:46.701Z,14.20
2023-03-20T03:22:10.617Z,12.90
2023-03-20T03:27:41.492Z,11.10
2023-03-20T03:33:33.107Z,12.70
2023-03-20T03:39:19.279Z,12.40
2023-03-20T03:45:09.417Z,12.10
2023-03-20T03:50:49.059Z,10.40
2023-03-20T03:56:17.196Z,10.70
2023-03-20T04:01:44.716Z,10.40
2023-03-20T04:07:08.656Z,10.90
2023-03-20T04:12:43.663Z,10.60
2023-03-20T04:18:08.919Z,10.30
2023-03-20T04:23:35.950Z,11.20
2023-03-20T04:29:02.014Z,11.60
2023-03-20T04:34:44.298Z,12.10
2023-03-20T04:40:24.956Z,11.90
2023-03-20T04:45:49.453Z,11.90
2023-03-20T04:51:14.738Z,12.60
2023-03-20T04:56:46.208Z,16.20
2023-03-20T05:02:15.414Z,12.20
2023-03-20T05:07:39.522Z,12.80
2023-03-20T05:13:06.620Z,11.90
2023-03-20T05:18:48.407Z,11.90
2023-03-20T05:24:33.910Z,12.10
2023-03-20T05:30:14.786Z,11.70
2023-03-20T05:36:14.184Z,11.30
2023-03-20T05:41:52.293Z,11.80
2023-03-20T05:47:35.201Z,11.10
2023-03-20T05:53:19.497Z,12.80
2023-03-20T05:59:08.254Z,12.40
2023-03-20T06:04:56.414Z,13.70
2023-03-20T06:10:24.794Z,12.10
2023-03-20T06:15:48.883Z,11.90
2023-03-20T06:21:14.430Z,11.60
2023-03-20T06:26:39.359Z,11.50
2023-03-20T06:32:13.790Z,11.80
2023-03-20T06:37:38.663Z,12.60
2023-03-20T06:43:06.234Z,10.80
2023-03-20T06:48:38.573Z,11.10
2023-03-20T06:54:03.633Z,13.00
2023-03-20T06:59:28.567Z,13.00
2023-03-20T07:04:55.743Z,13.70
2023-03-20T07:10:24.021Z,17.40
2023-03-20T07:16:03.311Z,16.90
2023-03-20T07:21:30.390Z,13.20
2023-03-20T07:26:55.516Z,11.60
2023-03-20T07:32:19.764Z,10.40
2023-03-20T07:37:50.641Z,10.80
2023-03-20T07:43:18.625Z,11.10
2023-03-20T07:49:09.046Z,9.10
2023-03-20T07:54:33.321Z,9.70
2023-03-20T07:59:57.648Z,9.00
2023-03-20T08:05:21.446Z,7.60
2023-03-20T08:10:46.888Z,7.90
2023-03-20T08:16:11.190Z,7.50
2023-03-20T08:21:35.039Z,8.00
2023-03-20T08:26:59.093Z,7.00
2023-03-20T08:32:23.135Z,5.90
2023-03-20T08:37:47.227Z,6.60
2023-03-20T08:43:12.491Z,5.90
2023-03-20T08:48:37.143Z,5.90
2023-03-20T08:54:01.552Z,5.70
2023-03-20T08:59:25.553Z,5.90
2023-03-20T09:04:49.683Z,5.30
2023-03-20T09:10:13.903Z,5.40
2023-03-20T09:15:39.283Z,5.60
2023-03-20T09:21:04.203Z,5.80
2023-03-20T09:26:28.104Z,5.70
2023-03-20T09:31:54.042Z,4.40
2023-03-20T09:37:18.138Z,5.70
2023-03-20T09:42:59.191Z,4.90
2023-03-20T09:48:56.866Z,4.90
2023-03-20T09:54:52.728Z,5.40
2023-03-20T10:00:20.749Z,6.20
2023-03-20T10:06:04.805Z,6.70
2023-03-20T10:11:31.955Z,9.00
2023-03-20T10:17:05.554Z,7.40
2023-03-20T10:22:36.745Z,7.30
2023-03-20T10:28:04.531Z,5.40
2023-03-20T10:33:56.297Z,7.00
2023-03-20T10:39:36.362Z,4.80
2023-03-20T10:45:28.190Z,6.60
2023-03-20T10:50:55.892Z,5.40
2023-03-20T10:56:31.964Z,5.90
2023-03-20T11:01:56.882Z,5.20
2023-03-20T11:07:24.045Z,6.00
2023-03-20T11:12:49.901Z,5.20
2023-03-20T11:18:16.150Z,6.60
2023-03-20T11:23:41.131Z,6.20
2023-03-20T11:29:12.229Z,7.00
2023-03-20T11:34:38.353Z,5.40
2023-03-20T11:40:08.433Z,5.40
2023-03-20T11:45:38.260Z,6.20
2023-03-20T11:51:09.459Z,6.90
2023-03-20T11:56:35.853Z,6.20
2023-03-20T12:02:05.797Z,5.90
2023-03-20T12:07:38.483Z,7.80
2023-03-20T12:13:12.498Z,6.80
2023-03-20T12:18:42.361Z,6.70
2023-03-20T12:24:16.094Z,6.60
2023-03-20T12:29:50.478Z,7.20
2023-03-20T12:35:31.727Z,6.90
2023-03-20T12:41:13.569Z,7.60
2023-03-20T12:47:27.810Z,6.80
2023-03-20T12:53:09.828Z,8.90
2023-03-20T12:58:39.679Z,7.10
2023-03-20T13:04:35.832Z,7.90
2023-03-20T13:10:18.383Z,7.70
2023-03-20T13:16:09.720Z,7.70
2023-03-20T13:21:41.707Z,7.10
2023-03-20T13:27:23.626Z,6.40
2023-03-20T13:33:24.985Z,6.80
2023-03-20T13:39:01.175Z,5.60
2023-03-20T13:44:29.380Z,5.60
2023-03-20T13:50:31.569Z,5.90
2023-03-20T13:56:33.174Z,5.20
2023-03-20T14:02:34.119Z,4.20
2023-03-20T14:07:59.121Z,4.20
2023-03-20T14:13:26.085Z,3.80
2023-03-20T14:19:14.469Z,3.90
2023-03-20T14:24:40.851Z,4.20
2023-03-20T14:30:30.007Z,4.30
2023-03-20T14:36:18.954Z,4.30
2023-03-20T14:42:16.668Z,5.10
2023-03-20T14:47:52.735Z,5.00
2023-03-20T14:53:22.906Z,4.60
2023-03-20T14:58:49.550Z,5.30
2023-03-20T15:04:31.409Z,4.60
2023-03-20T15:10:00.019Z,4.80
2023-03-20T15:15:29.545Z,6.10
2023-03-20T15:20:56.808Z,6.60
2023-03-20T15:26:25.831Z,7.10
2023-03-20T15:32:12.928Z,6.70
2023-03-20T15:37:38.144Z,7.50
2023-03-20T15:43:14.164Z,6.50
2023-03-20T15:48:38.207Z,7.80
2023-03-20T15:54:08.314Z,6.70
2023-03-20T15:59:35.310Z,6.30
2023-03-20T16:05:00.096Z,6.90
2023-03-20T16:10:36.575Z,7.10
2023-03-20T16:16:02.901Z,7.60
2023-03-20T16:21:32.680Z,8.40
2023-03-20T16:26:58.809Z,7.30
2023-03-20T16:32:33.439Z,8.40
2023-03-20T16:38:01.665Z,8.30
2023-03-20T16:43:30.745Z,9.40
2023-03-20T16:48:59.466Z,10.30
2023-03-20T16:54:23.540Z,8.80
2023-03-20T16:59:48.533Z,9.30
2023-03-20T17:05:14.970Z,9.70
2023-03-20T17:10:40.942Z,8.00
2023-03-20T17:16:06.169Z,8.80
2023-03-20T17:21:30.553Z,9.40
2023-03-20T17:26:56.708Z,9.70
2023-03-20T17:32:24.356Z,9.00
2023-03-20T17:37:49.637Z,9.00
2023-03-20T17:43:15.961Z,9.60
2023-03-20T17:48:41.052Z,9.50
2023-03-20T17:54:05.873Z,10.70
2023-03-20T17:59:31.577Z,10.50
2023-03-20T18:04:55.969Z,10.50
2023-03-20T18:10:26.779Z,9.90
2023-03-20T18:15:53.919Z,11.00
2023-03-20T18:21:18.541Z,10.40
2023-03-20T18:26:44.475Z,11.20
2023-03-20T18:32:09.594Z,12.70
2023-03-20T18:37:33.715Z,12.90
2023-03-20T18:42:59.099Z,12.90
2023-03-20T18:48:25.515Z,14.30
2023-03-20T18:53:50.416Z,13.10
2023-03-20T18:59:14.801Z,13.90
2023-03-20T19:04:39.417Z,12.80
2023-03-20T19:10:03.993Z,12.80
2023-03-20T19:15:31.351Z,14.20
2023-03-20T19:20:58.402Z,16.60
2023-03-20T19:26:25.040Z,16.40
2023-03-20T19:31:49.848Z,17.90
2023-03-20T19:37:13.962Z,16.50
2023-03-20T19:42:59.861Z,18.40
2023-03-20T19:48:46.124Z,18.90
2023-03-20T19:54:14.206Z,18.70
2023-03-20T19:59:43.728Z,18.50
2023-03-20T20:05:18.366Z,17.80
2023-03-20T20:10:46.215Z,18.90
2023-03-20T20:16:10.733Z,18.20
2023-03-20T20:22:17.159Z,16.30
2023-03-20T20:27:21.933Z,17.60
2023-03-20T20:32:47.667Z,16.80
2023-03-20T20:38:44.607Z,17.20
2023-03-20T20:44:16.233Z,18.00
2023-03-20T20:49:42.208Z,16.50
2023-03-20T20:55:22.052Z,15.70
2023-03-20T21:00:54.733Z,17.70
2023-03-20T21:06:21.952Z,16.40
2023-03-20T21:11:47.197Z,17.50
2023-03-20T21:17:12.256Z,15.70
2023-03-20T21:22:38.051Z,17.60
2023-03-20T21:28:04.577Z,15.70
2023-03-20T21:33:31.941Z,14.60
2023-03-20T21:39:13.411Z,15.90
2023-03-20T21:45:34.491Z,14.30
2023-03-20T21:51:15.124Z,15.60
2023-03-20T21:56:48.979Z,15.00
2023-03-20T22:02:19.176Z,14.00
2023-03-20T22:08:18.512Z,13.30
2023-03-20T22:20:07.195Z,15.00
2023-03-20T22:25:45.918Z,14.00
2023-03-20T22:31:28.711Z,13.90
2023-03-20T22:42:52.954Z,15.80
2023-03-20T22:47:56.701Z,15.50
2023-03-20T22:53:20.628Z,14.00
2023-03-20T22:58:44.898Z,13.90
2023-03-20T23:04:09.481Z,13.50
2023-03-20T23:09:35.557Z,13.70
2023-03-20T23:15:00.032Z,15.10
2023-03-20T23:20:24.426Z,16.30
2023-03-20T23:25:48.763Z,15.20
2023-03-20T23:31:16.184Z,14.10
2023-03-20T23:36:40.439Z,14.10
2023-03-20T23:42:17.332Z,13.00
2023-03-20T23:47:46.038Z,13.00
2023-03-20T23:53:19.934Z,11.40
2023-03-20T23:58:59.464Z,11.30
